Time;durP1;ratioP1;P1;durP2;ratioP2;P2;SDS_P1;SDS_P2;PMS_P1;PMS_P2;Temp;Humidity;BMP_temperature;BMP_pressure;BME280_temperature;BME280_humidity;BME280_pressure;Samples;Min_cycle;Max_cycle;Signal;HPM_P1;HPM_P2
2022/10/07 00:00:49;;;;;;;7.15;1.40;;;9.50;99.90;;;;;;5102451;28;20049;-85
2022/10/07 00:03:17;;;;;;;5.90;1.58;;;9.40;99.90;;;;;;5090625;28;20878;-85
2022/10/07 00:05:44;;;;;;;7.03;1.92;;;9.40;99.90;;;;;;5073777;28;20036;-85
2022/10/07 00:08:11;;;;;;;3.53;1.50;;;9.30;99.90;;;;;;5073600;28;20400;-85
2022/10/07 00:10:42;;;;;;;11.90;1.88;;;9.30;99.90;;;;;;5078314;28;20036;-85
2022/10/07 00:13:10;;;;;;;4.03;1.40;;;9.20;99.90;;;;;;5073656;28;20416;-85
2022/10/07 00:15:37;;;;;;;10.25;1.90;;;9.30;99.90;;;;;;5073879;28;20048;-85
2022/10/07 00:18:04;;;;;;;6.43;1.40;;;9.30;99.90;;;;;;5090075;28;20037;-85
2022/10/07 00:20:39;;;;;;;9.68;1.85;;;9.30;99.90;;;;;;5094330;28;20040;-85
2022/10/07 00:23:06;;;;;;;9.38;1.70;;;9.50;99.90;;;;;;5094023;28;20507;-85
2022/10/07 00:25:37;;;;;;;4.65;1.50;;;9.20;99.90;;;;;;5110458;28;20484;-85
2022/10/07 00:28:04;;;;;;;7.13;1.70;;;9.30;99.90;;;;;;5093306;28;20067;-85
2022/10/07 00:30:31;;;;;;;5.53;1.58;;;9.30;99.90;;;;;;5127513;28;20036;-85
2022/10/07 00:32:58;;;;;;;10.75;1.60;;;9.20;99.90;;;;;;5110168;28;20085;-85
2022/10/07 00:35:28;;;;;;;7.70;1.67;;;9.20;99.90;;;;;;5093674;28;20048;-85
2022/10/07 00:37:55;;;;;;;9.73;1.60;;;9.20;99.90;;;;;;5110257;28;20032;-84
2022/10/07 00:40:22;;;;;;;7.57;1.92;;;9.10;99.90;;;;;;5076770;28;20044;-85
2022/10/07 00:42:48;;;;;;;4.30;1.38;;;9.60;99.90;;;;;;5093307;28;20101;-85
2022/10/07 00:45:18;;;;;;;8.05;1.48;;;9.10;99.90;;;;;;5093278;28;20725;-86
2022/10/07 00:47:49;;;;;;;6.25;2.10;;;9.20;99.90;;;;;;5109946;28;20036;-85
2022/10/07 00:50:20;;;;;;;3.90;1.38;;;9.10;99.90;;;;;;5093586;28;20051;-85
2022/10/07 00:52:53;;;;;;;5.95;1.90;;;9.10;99.90;;;;;;5109990;28;20135;-85
2022/10/07 00:55:24;;;;;;;7.70;1.60;;;9.10;99.90;;;;;;5126667;28;20040;-85
2022/10/07 00:57:54;;;;;;;4.70;1.73;;;9.00;99.90;;;;;;5109863;28;20047;-85
2022/10/07 01:00:22;;;;;;;5.28;1.60;;;9.00;99.90;;;;;;5109531;28;20044;-85
2022/10/07 01:02:50;;;;;;;6.90;1.80;;;9.10;99.90;;;;;;5093355;28;20051;-85
2022/10/07 01:05:18;;;;;;;6.47;1.80;;;9.00;99.90;;;;;;5109473;28;20032;-85
2022/10/07 01:07:47;;;;;;;6.25;1.80;;;9.00;99.90;;;;;;5109937;28;20032;-85
2022/10/07 01:10:18;;;;;;;7.97;2.15;;;9.00;99.90;;;;;;5126599;28;20156;-85
2022/10/07 01:13:04;;;;;;;7.90;2.03;;;9.10;99.90;;;;;;5109959;28;20047;-85
2022/10/07 01:15:39;;;;;;;5.32;1.92;;;9.00;99.90;;;;;;5109782;28;20040;-85
2022/10/07 01:18:23;;;;;;;4.80;1.88;;;9.00;99.90;;;;;;5126713;28;20510;-85
2022/10/07 01:21:21;;;;;;;5.32;2.00;;;9.00;99.90;;;;;;5109625;28;20040;-85
2022/10/07 01:23:57;;;;;;;8.85;1.90;;;9.00;99.90;;;;;;5109644;28;20048;-85
2022/10/07 01:26:44;;;;;;;7.78;2.33;;;9.00;99.90;;;;;;5109453;28;20118;-85
2022/10/07 01:29:21;;;;;;;10.15;2.58;;;9.00;99.90;;;;;;5109808;28;20044;-85
2022/10/07 01:32:05;;;;;;;8.23;2.08;;;9.00;99.90;;;;;;5109467;28;20036;-85
2022/10/07 01:34:34;;;;;;;6.82;1.95;;;9.00;99.90;;;;;;5109582;28;20445;-85
2022/10/07 01:37:05;;;;;;;7.50;1.83;;;9.00;99.90;;;;;;5093124;28;20090;-85
2022/10/07 01:39:37;;;;;;;5.95;1.83;;;9.00;99.90;;;;;;5109736;28;20093;-85
2022/10/07 01:42:05;;;;;;;5.13;1.58;;;9.00;99.90;;;;;;5109419;28;20043;-85
2022/10/07 01:44:32;;;;;;;5.75;1.90;;;9.00;99.90;;;;;;5109177;28;20044;-85
2022/10/07 01:46:58;;;;;;;6.70;1.98;;;8.90;99.90;;;;;;5092632;28;20512;-85
2022/10/07 01:49:25;;;;;;;4.50;1.50;;;9.60;99.90;;;;;;5092767;28;20076;-85
2022/10/07 01:52:25;;;;;;;5.93;2.00;;;9.00;99.90;;;;;;5109514;28;20044;-85
2022/10/07 01:55:27;;;;;;;6.85;1.70;;;9.30;99.90;;;;;;5109695;28;20104;-85
2022/10/07 01:58:05;;;;;;;7.32;2.00;;;8.90;99.90;;;;;;5089376;28;20082;-85
2022/10/07 02:00:35;;;;;;;4.65;1.80;;;8.90;99.90;;;;;;5088746;28;20524;-85
2022/10/07 02:03:12;;;;;;;8.65;1.70;;;8.90;99.90;;;;;;5089142;28;20110;-85
2022/10/07 02:05:50;;;;;;;7.70;2.10;;;8.90;99.90;;;;;;5106122;28;20045;-85
2022/10/07 02:08:32;;;;;;;6.93;2.20;;;8.90;99.90;;;;;;5088918;28;20041;-85
2022/10/07 02:11:13;;;;;;;4.18;1.83;;;8.80;99.90;;;;;;5109369;28;20051;-85
2022/10/07 02:13:46;;;;;;;3.58;1.73;;;8.90;99.90;;;;;;5092710;28;20040;-85
2022/10/07 02:16:20;;;;;;;11.18;2.47;;;8.90;99.90;;;;;;5092715;28;20044;-85
2022/10/07 02:18:51;;;;;;;5.45;2.00;;;8.80;99.90;;;;;;5092736;28;20514;-85
2022/10/07 02:21:25;;;;;;;11.73;2.10;;;8.80;99.90;;;;;;5092191;28;20047;-85
2022/10/07 02:23:54;;;;;;;10.23;2.10;;;8.80;99.90;;;;;;5092584;28;20546;-85
2022/10/07 02:26:23;;;;;;;4.10;1.85;;;8.90;99.90;;;;;;5091971;28;20079;-85
2022/10/07 02:28:52;;;;;;;9.57;2.42;;;8.80;99.90;;;;;;5092249;28;20569;-85
2022/10/07 02:31:23;;;;;;;6.65;2.20;;;8.80;99.90;;;;;;5108985;28;20099;-85
2022/10/07 02:33:52;;;;;;;5.95;1.88;;;8.80;99.90;;;;;;5103538;28;20036;-85
2022/10/07 02:36:27;;;;;;;7.80;1.73;;;8.80;99.90;;;;;;5096337;28;20103;-85
2022/10/07 02:38:55;;;;;;;7.68;2.15;;;8.80;99.90;;;;;;5112723;28;20158;-85
2022/10/07 02:41:57;;;;;;;10.45;1.83;;;8.80;99.90;;;;;;5079338;28;20096;-85
2022/10/07 02:44:43;;;;;;;8.82;2.25;;;8.80;99.90;;;;;;5129132;28;20067;-85
2022/10/07 02:47:16;;;;;;;7.68;2.15;;;8.80;99.90;;;;;;5112571;28;20040;-85
2022/10/07 02:49:48;;;;;;;4.95;1.95;;;8.80;99.90;;;;;;5112291;28;20046;-85
2022/10/07 02:52:17;;;;;;;5.82;1.70;;;8.80;99.90;;;;;;5112153;28;20044;-85
2022/10/07 02:54:58;;;;;;;8.35;2.10;;;8.80;99.90;;;;;;5112127;28;20040;-85
2022/10/07 02:57:29;;;;;;;6.20;1.63;;;8.80;99.90;;;;;;5129310;28;20044;-84
2022/10/07 02:59:57;;;;;;;13.00;2.28;;;8.80;99.90;;;;;;5111436;28;20052;-85
2022/10/07 03:02:31;;;;;;;5.57;2.00;;;8.80;99.90;;;;;;5095089;28;20044;-85
2022/10/07 03:04:58;;;;;;;6.57;1.83;;;8.80;99.90;;;;;;5112101;28;20036;-85
2022/10/07 03:07:25;;;;;;;8.00;1.83;;;8.80;99.90;;;;;;5095235;28;20112;-85
2022/10/07 03:09:53;;;;;;;7.85;1.75;;;8.70;99.90;;;;;;5078429;28;20416;-85
2022/10/07 03:12:20;;;;;;;10.90;1.80;;;9.00;99.90;;;;;;5128577;28;20519;-85
2022/10/07 03:14:48;;;;;;;7.72;2.13;;;8.70;99.90;;;;;;5094905;28;20071;-85
2022/10/07 03:17:18;;;;;;;5.18;1.60;;;8.70;99.90;;;;;;5095163;28;20492;-85
2022/10/07 03:19:45;;;;;;;6.13;2.08;;;8.70;99.90;;;;;;5094701;28;20032;-85
2022/10/07 03:22:12;;;;;;;4.85;1.73;;;8.60;99.90;;;;;;5094778;28;20141;-85
2022/10/07 03:24:40;;;;;;;8.75;1.80;;;8.60;99.90;;;;;;5095153;28;20062;-85
2022/10/07 03:27:07;;;;;;;8.60;1.80;;;8.60;99.90;;;;;;5095170;28;20055;-85
2022/10/07 03:29:34;;;;;;;8.63;1.63;;;8.70;99.90;;;;;;5111527;28;20499;-84
2022/10/07 03:32:01;;;;;;;5.30;2.42;;;8.60;99.90;;;;;;5090943;28;20159;-85
2022/10/07 03:34:29;;;;;;;6.32;1.98;;;8.60;99.90;;;;;;5074333;28;20124;-85
2022/10/07 03:36:56;;;;;;;8.43;2.33;;;8.60;99.90;;;;;;5091403;28;20044;-85
2022/10/07 03:39:22;;;;;;;9.10;1.80;;;8.60;99.90;;;;;;5090666;28;20050;-85
2022/10/07 03:41:50;;;;;;;5.10;2.13;;;8.60;99.90;;;;;;5074463;28;20044;-85
2022/10/07 03:44:18;;;;;;;9.95;2.45;;;8.60;99.90;;;;;;5074380;28;20033;-85
2022/10/07 03:46:48;;;;;;;8.20;2.10;;;8.80;99.90;;;;;;5074323;28;20036;-85
2022/10/07 03:49:15;;;;;;;7.32;2.47;;;8.60;99.90;;;;;;5090916;28;20063;-85
2022/10/07 03:51:42;;;;;;;5.88;2.05;;;8.60;99.90;;;;;;5073696;28;20040;-85
2022/10/07 03:54:09;;;;;;;8.45;2.05;;;8.60;99.90;;;;;;5074060;28;20098;-85
2022/10/07 03:56:35;;;;;;;7.15;2.00;;;8.60;99.90;;;;;;5074003;28;20071;-85
2022/10/07 03:59:02;;;;;;;10.82;2.28;;;9.10;99.90;;;;;;5073759;28;20419;-85
2022/10/07 04:01:30;;;;;;;8.50;1.80;;;8.50;99.90;;;;;;5092545;28;20512;-85
2022/10/07 04:03:59;;;;;;;8.10;2.70;;;8.60;99.90;;;;;;5094155;28;20036;-85
2022/10/07 04:06:26;;;;;;;7.55;2.08;;;8.60;99.90;;;;;;5094456;28;20093;-83
2022/10/07 04:08:54;;;;;;;7.50;1.88;;;8.70;99.90;;;;;;5094232;28;20043;-85
2022/10/07 04:11:23;;;;;;;7.30;2.03;;;8.70;99.90;;;;;;5094476;28;20044;-85
2022/10/07 04:13:50;;;;;;;7.05;2.10;;;8.50;99.90;;;;;;5127646;28;20043;-87
2022/10/07 04:16:17;;;;;;;9.98;2.10;;;8.50;99.90;;;;;;5110368;28;20048;-85
2022/10/07 04:18:44;;;;;;;8.27;2.47;;;8.50;99.90;;;;;;5110639;28;20040;-85
2022/10/07 04:21:11;;;;;;;12.68;2.15;;;8.50;99.90;;;;;;5093573;28;20054;-85
2022/10/07 04:23:41;;;;;;;7.05;2.30;;;8.50;99.90;;;;;;5089835;28;20068;-85
2022/10/07 04:26:12;;;;;;;5.72;2.10;;;8.40;99.90;;;;;;5090025;28;20032;-85
2022/10/07 04:28:39;;;;;;;6.68;2.10;;;8.40;99.90;;;;;;5090466;28;20167;-85
2022/10/07 04:31:07;;;;;;;7.57;2.20;;;8.40;99.90;;;;;;5073134;28;20474;-85
2022/10/07 04:33:38;;;;;;;9.05;2.40;;;8.40;99.90;;;;;;5090103;28;20127;-84
2022/10/07 04:36:07;;;;;;;6.97;1.80;;;8.40;99.90;;;;;;5089990;28;20044;-85
2022/10/07 04:38:34;;;;;;;7.40;2.47;;;8.40;99.90;;;;;;5073099;28;20143;-85
2022/10/07 04:41:05;;;;;;;5.93;2.25;;;8.40;99.90;;;;;;5107006;28;20123;-85
2022/10/07 04:43:33;;;;;;;9.95;2.78;;;8.40;99.90;;;;;;5090190;28;20562;-85
2022/10/07 04:46:02;;;;;;;8.00;2.58;;;8.40;99.90;;;;;;5109899;28;20085;-85
2022/10/07 04:48:30;;;;;;;8.07;2.50;;;8.60;99.90;;;;;;5109938;28;20062;-85
2022/10/07 04:51:05;;;;;;;6.57;2.30;;;8.40;99.90;;;;;;5093442;28;20512;-85
2022/10/07 04:53:32;;;;;;;7.47;2.15;;;8.40;99.90;;;;;;5093718;28;20040;-84
2022/10/07 04:55:59;;;;;;;7.22;2.50;;;8.60;99.90;;;;;;5073401;28;20044;-85
2022/10/07 04:58:28;;;;;;;11.32;2.72;;;8.30;99.90;;;;;;5073360;28;20127;-85
2022/10/07 05:00:56;;;;;;;7.00;2.10;;;8.30;99.90;;;;;;5089408;28;20045;-85
2022/10/07 05:03:25;;;;;;;10.07;2.50;;;8.30;99.90;;;;;;5072877;28;20123;-86
2022/10/07 05:05:54;;;;;;;11.32;2.50;;;8.30;99.90;;;;;;5100724;28;20040;-85
2022/10/07 05:08:25;;;;;;;12.70;2.67;;;8.30;99.90;;;;;;5126419;28;20503;-85
2022/10/07 05:10:56;;;;;;;6.32;2.30;;;8.20;99.90;;;;;;5093399;28;20151;-85
2022/10/07 05:13:26;;;;;;;7.20;2.08;;;8.50;99.90;;;;;;5109792;28;20391;-86
2022/10/07 05:15:55;;;;;;;9.57;2.45;;;8.20;99.90;;;;;;5093220;28;20047;-85
2022/10/07 05:18:25;;;;;;;11.18;2.08;;;8.20;99.90;;;;;;5109876;28;20105;-85
2022/10/07 05:20:52;;;;;;;10.68;2.65;;;8.20;99.90;;;;;;5126112;28;20093;-85
2022/10/07 05:23:20;;;;;;;7.80;2.50;;;8.20;99.90;;;;;;5092849;28;20070;-85
2022/10/07 05:25:55;;;;;;;12.38;2.33;;;8.60;99.90;;;;;;5092648;28;20036;-85
2022/10/07 05:28:23;;;;;;;8.75;2.33;;;8.20;99.90;;;;;;5093829;28;20039;-84
2022/10/07 05:31:04;;;;;;;9.13;2.17;;;8.20;99.90;;;;;;5109085;28;20357;-85
2022/10/07 05:33:31;;;;;;;10.65;2.53;;;8.20;99.90;;;;;;5126250;28;20516;-85
2022/10/07 05:35:58;;;;;;;7.25;2.20;;;8.20;99.90;;;;;;5109245;28;20119;-85
2022/10/07 05:38:25;;;;;;;6.90;2.38;;;8.20;99.90;;;;;;5109675;28;20052;-85
2022/10/07 05:41:00;;;;;;;8.93;2.22;;;8.20;99.90;;;;;;5093443;28;20915;-85
2022/10/07 05:43:29;;;;;;;6.85;2.45;;;8.20;99.90;;;;;;5110389;28;20466;-85
2022/10/07 05:46:09;;;;;;;7.05;2.17;;;8.20;99.90;;;;;;5113137;28;20040;-85
2022/10/07 05:48:35;;;;;;;8.63;2.22;;;8.70;99.90;;;;;;5113329;28;20036;-85
2022/10/07 05:51:03;;;;;;;14.25;2.67;;;8.20;99.90;;;;;;5096437;28;20134;-85
2022/10/07 05:53:30;;;;;;;7.65;2.50;;;8.20;99.90;;;;;;5096486;28;20051;-85
2022/10/07 05:55:57;;;;;;;6.63;2.65;;;8.20;99.90;;;;;;5113278;28;20051;-85
2022/10/07 05:58:23;;;;;;;9.02;2.00;;;8.30;99.90;;;;;;5095980;28;20040;-85
2022/10/07 06:00:58;;;;;;;8.93;2.40;;;8.20;99.90;;;;;;5112533;28;20566;-85
2022/10/07 06:03:25;;;;;;;8.70;2.20;;;8.20;99.90;;;;;;5112999;28;20442;-86
2022/10/07 06:05:53;;;;;;;13.68;2.45;;;8.30;99.90;;;;;;5098918;28;20074;-85
2022/10/07 06:08:21;;;;;;;10.20;2.47;;;8.30;99.90;;;;;;5099308;28;20093;-85
2022/10/07 06:13:34;;;;;;;9.50;2.05;;;8.30;99.90;;;;;;5115329;28;20131;-85
2022/10/07 06:16:06;;;;;;;10.27;2.40;;;8.30;99.90;;;;;;5129801;28;20040;-85
2022/10/07 06:18:36;;;;;;;9.65;2.70;;;8.30;99.90;;;;;;5129746;28;20044;-85
2022/10/07 06:21:03;;;;;;;7.70;2.63;;;8.40;99.90;;;;;;5095620;28;20047;-85
2022/10/07 06:23:31;;;;;;;11.82;2.90;;;8.40;99.90;;;;;;5096071;28;20447;-85
2022/10/07 06:26:03;;;;;;;12.77;2.65;;;8.80;99.90;;;;;;5129264;28;20036;-85
2022/10/07 06:28:32;;;;;;;14.10;2.72;;;8.40;99.90;;;;;;5113254;28;20032;-85
2022/10/07 06:31:01;;;;;;;7.55;2.67;;;8.40;99.90;;;;;;5092670;28;20054;-86
2022/10/07 06:33:28;;;;;;;9.10;2.15;;;8.40;99.90;;;;;;5096979;28;20043;-86
2022/10/07 06:35:58;;;;;;;5.05;2.20;;;8.50;99.90;;;;;;5062256;28;20041;-85
2022/10/07 06:38:24;;;;;;;9.02;2.50;;;8.50;99.90;;;;;;5079998;28;20036;-85
2022/10/07 06:40:57;;;;;;;14.82;2.72;;;8.60;99.90;;;;;;5095364;28;20416;-85
2022/10/07 06:43:33;;;;;;;20.02;2.85;;;8.60;99.90;;;;;;5094913;28;20037;-85
2022/10/07 06:46:02;;;;;;;9.00;2.60;;;8.60;99.90;;;;;;5092979;28;20047;-86
2022/10/07 06:48:31;;;;;;;9.57;2.63;;;8.70;99.90;;;;;;5100676;28;20036;-86
2022/10/07 06:51:02;;;;;;;12.43;2.70;;;8.80;99.90;;;;;;5112395;28;20496;-85
2022/10/07 06:53:29;;;;;;;12.98;3.15;;;8.80;99.90;;;;;;5107068;28;20147;-85
2022/10/07 06:56:00;;;;;;;10.02;2.75;;;8.80;99.90;;;;;;5116396;28;20075;-85
2022/10/07 06:58:28;;;;;;;14.65;3.05;;;9.00;99.90;;;;;;5112666;28;20112;-85
2022/10/07 07:00:55;;;;;;;7.60;2.63;;;9.00;99.90;;;;;;5095248;28;20059;-85
2022/10/07 07:03:23;;;;;;;11.50;2.95;;;9.00;99.90;;;;;;5095747;28;20048;-86
2022/10/07 07:05:50;;;;;;;14.20;2.78;;;9.10;99.90;;;;;;5112179;28;20043;-85
2022/10/07 07:08:18;;;;;;;12.45;2.70;;;9.10;99.90;;;;;;5105115;28;20559;-86
2022/10/07 07:10:45;;;;;;;9.98;2.45;;;9.20;99.90;;;;;;5126456;28;20044;-85
2022/10/07 07:13:14;;;;;;;6.88;2.60;;;9.20;99.90;;;;;;5078865;28;20036;-86
2022/10/07 07:15:42;;;;;;;14.45;2.35;;;9.30;99.90;;;;;;5112794;28;20126;-87
2022/10/07 07:18:10;;;;;;;7.60;2.75;;;9.40;99.90;;;;;;5095491;28;20131;-85
2022/10/07 07:20:38;;;;;;;9.65;2.38;;;9.50;99.90;;;;;;5111825;28;20102;-86
2022/10/07 07:23:09;;;;;;;10.70;2.58;;;9.60;99.90;;;;;;5111604;28;20036;-85
2022/10/07 07:25:38;;;;;;;14.07;2.67;;;9.70;99.90;;;;;;5111834;28;20032;-86
2022/10/07 07:28:06;;;;;;;15.00;3.10;;;9.90;99.90;;;;;;5094961;28;20121;-85
2022/10/07 07:30:35;;;;;;;10.23;2.40;;;10.00;99.90;;;;;;5109100;28;20078;-84
2022/10/07 07:33:03;;;;;;;6.03;2.40;;;10.10;99.90;;;;;;5101254;28;20519;-85
2022/10/07 07:35:31;;;;;;;11.95;2.40;;;10.20;99.90;;;;;;5093324;28;20051;-85
2022/10/07 07:37:59;;;;;;;11.02;2.60;;;10.30;99.90;;;;;;5127130;28;20518;-86
2022/10/07 07:40:26;;;;;;;7.97;2.45;;;10.40;99.90;;;;;;5111789;28;21741;-86
2022/10/07 07:42:55;;;;;;;9.07;2.40;;;10.50;99.90;;;;;;5112174;28;20044;-86
2022/10/07 07:45:22;;;;;;;9.63;2.55;;;10.60;99.90;;;;;;5112272;28;20032;-85
2022/10/07 07:47:49;;;;;;;8.27;2.35;;;10.70;99.90;;;;;;5095297;28;20377;-86
2022/10/07 07:50:19;;;;;;;7.50;1.90;;;10.70;99.90;;;;;;5078458;28;20096;-86
2022/10/07 07:52:46;;;;;;;9.05;2.33;;;10.70;99.90;;;;;;5111674;28;20075;-86
2022/10/07 07:55:13;;;;;;;6.03;2.20;;;10.70;99.90;;;;;;5091476;28;20043;-86
2022/10/07 07:57:41;;;;;;;8.38;2.10;;;10.80;99.90;;;;;;5090088;28;20102;-86
2022/10/07 08:00:10;;;;;;;10.10;2.33;;;10.90;99.90;;;;;;5078468;28;20068;-86
2022/10/07 08:02:37;;;;;;;7.28;2.42;;;10.90;99.90;;;;;;5128107;28;20044;-86
2022/10/07 08:05:03;;;;;;;9.48;2.40;;;11.00;99.90;;;;;;5077833;28;20032;-86
2022/10/07 08:07:31;;;;;;;13.73;2.47;;;11.00;99.90;;;;;;5093710;28;20040;-86
2022/10/07 08:09:58;;;;;;;6.80;2.10;;;11.10;99.90;;;;;;5095028;28;20069;-86
2022/10/07 08:12:25;;;;;;;6.60;2.00;;;11.20;99.90;;;;;;5094491;28;20032;-85
2022/10/07 08:14:52;;;;;;;7.13;1.90;;;11.30;99.90;;;;;;5094821;28;20503;-86
2022/10/07 08:17:18;;;;;;;11.65;2.15;;;11.40;99.90;;;;;;5095314;28;20044;-85
2022/10/07 08:19:45;;;;;;;8.85;2.00;;;11.50;99.90;;;;;;5095383;28;20036;-85
2022/10/07 08:22:16;;;;;;;10.55;2.33;;;11.60;99.90;;;;;;5091092;28;20037;-85
2022/10/07 08:24:43;;;;;;;6.35;2.15;;;11.60;99.90;;;;;;5075008;28;20132;-85
2022/10/07 08:27:09;;;;;;;12.95;2.30;;;11.70;99.90;;;;;;5091283;28;20070;-85
2022/10/07 08:29:36;;;;;;;10.35;1.80;;;11.80;99.90;;;;;;5090281;28;20040;-85
2022/10/07 08:32:03;;;;;;;8.45;2.08;;;11.90;99.90;;;;;;5057121;28;20197;-85
2022/10/07 08:34:30;;;;;;;7.40;1.83;;;11.90;99.90;;;;;;5108518;28;20119;-85
2022/10/07 08:36:57;;;;;;;8.48;1.88;;;12.00;99.90;;;;;;5089668;28;20468;-85
2022/10/07 08:39:25;;;;;;;7.60;1.92;;;12.10;99.90;;;;;;5088953;28;20032;-85
2022/10/07 08:42:12;;;;;;;6.72;1.52;;;12.20;99.90;;;;;;5086307;28;20044;-87
2022/10/07 08:44:41;;;;;;;7.55;1.77;;;12.30;99.90;;;;;;5107833;28;20040;-86
2022/10/07 08:47:08;;;;;;;9.73;1.60;;;12.30;99.90;;;;;;5096270;28;20424;-85
2022/10/07 08:49:45;;;;;;;8.02;1.75;;;12.40;99.90;;;;;;5110543;28;20047;-87
2022/10/07 08:52:31;;;;;;;11.82;2.20;;;12.50;99.90;;;;;;5110607;28;20046;-85
2022/10/07 08:55:00;;;;;;;8.05;2.25;;;12.60;99.90;;;;;;5105847;28;20047;-85
2022/10/07 08:58:17;;;;;;;11.18;2.60;;;12.70;99.90;;;;;;5110087;28;20048;-85
2022/10/07 09:00:54;;;;;;;6.80;1.90;;;12.80;99.90;;;;;;5092293;28;20473;-85
2022/10/07 09:03:46;;;;;;;10.13;1.63;;;12.90;99.90;;;;;;5110152;28;20452;-85
2022/10/07 09:06:22;;;;;;;9.15;1.70;;;13.00;99.90;;;;;;5101303;28;20047;-85
2022/10/07 09:08:56;;;;;;;7.00;1.58;;;13.00;99.90;;;;;;5110648;28;20074;-86
2022/10/07 09:11:24;;;;;;;11.77;1.98;;;13.10;99.90;;;;;;5105820;28;20187;-85
2022/10/07 09:14:16;;;;;;;13.07;2.05;;;13.10;99.90;;;;;;5110414;28;20040;-85
2022/10/07 09:16:45;;;;;;;5.47;1.40;;;13.20;99.90;;;;;;5110201;28;20495;-85
2022/10/07 09:19:30;;;;;;;7.60;1.80;;;13.20;99.90;;;;;;5129490;28;20484;-85
2022/10/07 09:22:20;;;;;;;7.88;1.60;;;13.30;99.90;;;;;;5113764;28;20040;-86
2022/10/07 09:24:48;;;;;;;13.80;2.65;;;13.40;99.90;;;;;;5110602;28;20036;-86
2022/10/07 09:27:18;;;;;;;10.23;1.63;;;13.50;99.90;;;;;;5084924;28;20040;-87
2022/10/07 09:29:46;;;;;;;8.95;1.60;;;13.50;99.90;;;;;;5113946;28;20124;-86
2022/10/07 09:32:16;;;;;;;7.95;1.75;;;13.50;99.90;;;;;;5098296;28;20047;-86
2022/10/07 09:34:43;;;;;;;7.82;1.40;;;13.60;99.90;;;;;;5115027;28;20062;-87
2022/10/07 09:37:28;;;;;;;9.80;1.70;;;13.60;99.90;;;;;;5076104;28;20041;-87
2022/10/07 09:40:20;;;;;;;8.23;1.58;;;13.70;99.90;;;;;;5097321;28;20161;-87
2022/10/07 09:42:48;;;;;;;9.77;1.75;;;13.80;99.90;;;;;;5114854;28;20504;-87
2022/10/07 09:45:23;;;;;;;4.88;1.15;;;13.80;99.90;;;;;;5100720;28;20036;-87
2022/10/07 09:47:52;;;;;;;8.70;1.83;;;13.90;99.90;;;;;;5096474;28;20037;-85
2022/10/07 09:50:37;;;;;;;9.88;1.67;;;14.00;99.90;;;;;;5113325;28;20093;-87
2022/10/07 09:53:17;;;;;;;7.72;1.50;;;14.00;99.90;;;;;;5094549;28;20086;-85
2022/10/07 09:55:44;;;;;;;9.23;1.70;;;14.10;99.90;;;;;;5107031;28;20072;-86
2022/10/07 09:58:20;;;;;;;8.23;1.60;;;14.20;99.90;;;;;;5122980;28;20040;-85
2022/10/07 10:00:49;;;;;;;12.80;1.67;;;14.20;99.90;;;;;;5113286;28;20052;-86
2022/10/07 10:03:16;;;;;;;7.90;1.55;;;14.30;99.90;;;;;;5113023;28;20071;-86
2022/10/07 10:06:03;;;;;;;11.52;2.13;;;14.40;99.90;;;;;;5097195;28;20076;-85
2022/10/07 10:08:41;;;;;;;8.93;1.63;;;14.50;99.90;;;;;;5113226;28;20040;-85
2022/10/07 10:11:17;;;;;;;10.43;1.92;;;14.60;99.90;;;;;;5113795;28;20071;-85
2022/10/07 10:13:47;;;;;;;9.10;1.40;;;14.70;99.90;;;;;;5113606;28;20044;-85
2022/10/07 10:16:35;;;;;;;5.72;1.30;;;14.80;99.90;;;;;;5113503;28;20508;-85
2022/10/07 10:19:22;;;;;;;9.02;1.67;;;14.90;99.90;;;;;;5130009;28;20072;-85
2022/10/07 10:21:57;;;;;;;8.80;1.50;;;15.00;99.90;;;;;;5123876;28;20051;-86
2022/10/07 10:27:31;;;;;;;9.25;1.48;;;15.20;99.90;;;;;;5095581;28;20079;-85
2022/10/07 10:30:15;;;;;;;8.10;1.40;;;15.30;99.90;;;;;;5092051;28;20058;-85
2022/10/07 10:32:47;;;;;;;11.52;1.50;;;15.30;99.90;;;;;;5101889;28;20094;-85
2022/10/07 10:35:20;;;;;;;12.88;1.25;;;15.30;99.90;;;;;;5112672;28;20044;-85
2022/10/07 10:37:58;;;;;;;4.25;1.30;;;15.30;99.90;;;;;;5112890;28;20047;-86
2022/10/07 10:40:39;;;;;;;4.78;1.55;;;15.30;99.90;;;;;;5112620;28;20756;-86
2022/10/07 10:43:24;;;;;;;4.32;1.02;;;15.20;99.90;;;;;;5113185;28;20036;-86
2022/10/07 10:46:09;;;;;;;8.88;1.48;;;15.10;99.90;;;;;;5097733;28;20119;-85
2022/10/07 10:48:43;;;;;;;5.40;1.40;;;15.10;99.90;;;;;;5095713;28;20035;-86
2022/10/07 10:51:38;;;;;;;5.57;1.10;;;15.20;99.90;;;;;;5112703;28;20151;-85
2022/10/07 10:54:30;;;;;;;8.23;1.58;;;15.30;99.90;;;;;;5129292;28;20072;-86
2022/10/07 10:57:31;;;;;;;10.48;1.88;;;15.40;99.90;;;;;;5112548;28;20101;-86
2022/10/07 11:00:11;;;;;;;4.88;1.15;;;15.50;99.90;;;;;;5092112;28;20052;-86
2022/10/07 11:02:39;;;;;;;13.63;2.42;;;15.60;99.90;;;;;;5108824;28;20105;-86
2022/10/07 11:05:32;;;;;;;7.28;1.52;;;15.70;99.90;;;;;;5112563;28;20870;-86
2022/10/07 11:08:24;;;;;;;7.10;1.50;;;15.80;99.90;;;;;;5101768;28;20040;-86
2022/10/07 11:11:12;;;;;;;12.63;2.05;;;15.90;99.90;;;;;;5098570;28;20500;-86
2022/10/07 11:13:39;;;;;;;7.93;1.48;;;16.10;99.90;;;;;;5100675;28;20036;-85
2022/10/07 11:16:17;;;;;;;5.18;1.10;;;16.10;99.90;;;;;;5110579;28;20036;-86
2022/10/07 11:18:56;;;;;;;5.43;1.05;;;16.20;99.90;;;;;;5105313;28;20082;-85
2022/10/07 11:21:31;;;;;;;6.35;1.63;;;16.20;99.90;;;;;;5093866;28;20056;-85
2022/10/07 11:24:23;;;;;;;4.38;1.17;;;16.20;99.90;;;;;;5125163;28;20040;-85
2022/10/07 11:26:56;;;;;;;6.57;1.20;;;16.30;99.90;;;;;;5103092;28;20423;-86
2022/10/07 11:29:39;;;;;;;8.07;1.10;;;16.20;99.90;;;;;;5111843;28;20050;-86
2022/10/07 11:32:41;;;;;;;6.70;1.98;;;16.20;99.90;;;;;;5128094;28;20071;-86
2022/10/07 11:35:30;;;;;;;3.28;1.08;;;16.20;99.90;;;;;;5117226;28;20408;-86
2022/10/07 11:38:08;;;;;;;9.32;1.30;;;16.20;99.90;;;;;;5128468;28;20391;-86
2022/10/07 11:40:56;;;;;;;4.05;1.13;;;16.20;99.90;;;;;;5111164;28;20083;-86
2022/10/07 11:43:39;;;;;;;6.55;1.40;;;16.20;99.90;;;;;;5111293;28;20036;-86
2022/10/07 11:46:19;;;;;;;6.03;1.35;;;16.20;99.90;;;;;;5105773;28;20040;-86
2022/10/07 11:49:03;;;;;;;8.55;1.08;;;16.30;99.90;;;;;;5125385;28;20063;-86
2022/10/07 11:51:36;;;;;;;7.47;1.40;;;16.30;99.90;;;;;;5105502;28;20048;-86
2022/10/07 11:54:06;;;;;;;3.85;1.00;;;16.40;99.90;;;;;;5124120;28;20055;-86
2022/10/07 11:56:49;;;;;;;7.82;1.20;;;16.40;99.90;;;;;;5111361;28;20511;-86
2022/10/07 11:59:38;;;;;;;6.72;1.20;;;16.50;99.90;;;;;;5127518;28;20533;-86
2022/10/07 12:02:26;;;;;;;6.32;1.92;;;16.50;99.90;;;;;;5111160;28;20040;-87
2022/10/07 12:05:03;;;;;;;4.90;1.00;;;16.50;99.90;;;;;;5111253;28;20488;-87
2022/10/07 12:07:43;;;;;;;6.05;1.25;;;16.60;99.90;;;;;;5095802;28;20126;-86
2022/10/07 12:10:38;;;;;;;6.25;1.15;;;16.60;99.90;;;;;;5107229;28;20071;-86
2022/10/07 12:13:11;;;;;;;6.22;1.10;;;16.70;99.90;;;;;;5090573;28;20415;-86
2022/10/07 12:15:43;;;;;;;9.27;1.40;;;16.70;99.90;;;;;;5107263;28;20044;-86
2022/10/07 12:18:09;;;;;;;3.75;1.35;;;16.70;99.90;;;;;;5074722;28;20083;-86
2022/10/07 12:20:50;;;;;;;6.40;1.40;;;16.70;99.90;;;;;;5095340;28;20067;-87
2022/10/07 12:23:20;;;;;;;6.22;1.20;;;16.60;99.90;;;;;;5127605;28;20093;-86
2022/10/07 12:26:02;;;;;;;8.48;1.88;;;16.60;99.90;;;;;;5127337;28;20561;-86
2022/10/07 12:28:38;;;;;;;6.22;1.45;;;16.60;99.90;;;;;;5110587;28;20123;-86
2022/10/07 12:31:31;;;;;;;7.97;1.17;;;16.60;99.90;;;;;;5123252;28;20071;-86
2022/10/07 12:34:08;;;;;;;6.82;1.55;;;16.60;99.90;;;;;;5104400;28;20047;-86
2022/10/07 12:36:41;;;;;;;9.10;1.38;;;16.60;99.90;;;;;;5076959;28;20047;-86
2022/10/07 12:39:11;;;;;;;7.05;1.45;;;16.70;99.90;;;;;;5081039;28;20072;-87
2022/10/07 12:41:39;;;;;;;6.55;1.20;;;16.70;99.90;;;;;;5102063;28;20441;-86
2022/10/07 12:44:15;;;;;;;8.55;1.45;;;16.60;99.90;;;;;;5108957;28;20040;-86
2022/10/07 12:46:50;;;;;;;6.45;1.55;;;16.60;99.90;;;;;;5106608;28;20557;-87
2022/10/07 12:49:22;;;;;;;6.65;1.30;;;16.60;99.90;;;;;;5102438;28;20085;-86
2022/10/07 12:51:51;;;;;;;5.00;1.40;;;16.50;99.90;;;;;;5102726;28;20047;-87
2022/10/07 12:54:31;;;;;;;9.63;1.58;;;16.50;99.90;;;;;;5093868;28;20119;-87
2022/10/07 12:56:59;;;;;;;5.82;1.40;;;16.50;99.90;;;;;;5092199;28;20068;-86
2022/10/07 12:59:49;;;;;;;8.00;1.25;;;16.40;99.90;;;;;;5116113;28;20071;-86
2022/10/07 13:02:21;;;;;;;5.32;1.00;;;16.40;99.90;;;;;;5110623;28;20172;-87
2022/10/07 13:05:09;;;;;;;9.60;1.30;;;16.50;99.90;;;;;;5110723;28;20032;-86
2022/10/07 13:07:48;;;;;;;5.28;1.20;;;16.50;99.90;;;;;;5104328;28;20446;-86
2022/10/07 13:10:21;;;;;;;3.08;1.02;;;16.50;99.90;;;;;;5110004;28;20098;-86
2022/10/07 13:13:15;;;;;;;5.05;0.90;;;16.60;99.90;;;;;;5104563;28;20122;-86
2022/10/07 13:15:51;;;;;;;3.67;0.90;;;16.50;99.90;;;;;;5118707;28;20083;-87
2022/10/07 13:18:31;;;;;;;4.40;0.90;;;16.50;99.90;;;;;;5110396;28;20048;-86
2022/10/07 13:21:26;;;;;;;4.78;1.00;;;16.50;99.90;;;;;;5108976;28;20043;-87
2022/10/07 13:23:54;;;;;;;6.13;1.20;;;16.50;99.90;;;;;;5104824;28;20036;-85
2022/10/07 13:26:23;;;;;;;5.28;1.48;;;16.50;99.90;;;;;;5090225;28;20090;-85